Time;durP1;ratioP1;P1;durP2;ratioP2;P2;SDS_P1;SDS_P2;PMS_P1;PMS_P2;Temp;Humidity;BMP_temperature;BMP_pressure;BME280_temperature;BME280_humidity;BME280_pressure;Samples;Min_cycle;Max_cycle;Signal;HPM_P1;HPM_P2
2022/05/17 00:02:25;;;;;;;10.13;5.55;;;;;;;21.54;52.86;100328.09;5111228;28;20469;-70
2022/05/17 00:04:50;;;;;;;9.25;5.90;;;;;;;21.62;52.91;100338.84;5111222;28;20046;-70
2022/05/17 00:07:16;;;;;;;7.97;5.40;;;;;;;21.63;52.96;100339.66;5092631;28;20513;-69
2022/05/17 00:09:42;;;;;;;6.95;4.90;;;;;;;21.64;53.11;100330.44;5110903;28;20433;-70
2022/05/17 00:12:08;;;;;;;14.02;6.05;;;;;;;21.62;53.43;100324.34;5110922;28;20142;-70
2022/05/17 00:14:34;;;;;;;9.48;5.38;;;;;;;21.63;53.45;100331.47;5110811;28;20421;-69
2022/05/17 00:17:00;;;;;;;9.48;5.18;;;;;;;21.62;52.97;100330.66;5110771;28;20028;-70
2022/05/17 00:19:27;;;;;;;11.43;5.20;;;;;;;21.61;53.08;100322.66;5111123;28;20028;-70
2022/05/17 00:21:52;;;;;;;9.80;5.30;;;;;;;21.56;53.16;100306.03;5110911;28;20130;-70
2022/05/17 00:24:22;;;;;;;13.38;5.95;;;;;;;21.56;53.34;100306.91;5110691;28;20139;-70
2022/05/17 00:26:48;;;;;;;7.80;5.60;;;;;;;21.60;53.40;100308.16;5092777;28;20108;-70
2022/05/17 00:29:14;;;;;;;10.07;5.57;;;;;;;21.56;53.21;100292.41;5110821;28;20272;-69
2022/05/17 00:31:39;;;;;;;11.27;5.65;;;;;;;21.59;53.56;100294.72;5091966;28;20402;-70
2022/05/17 00:34:05;;;;;;;11.88;5.43;;;;;;;21.53;53.52;100281.88;5110607;28;20046;-70
2022/05/17 00:36:32;;;;;;;7.13;4.72;;;;;;;21.56;53.55;100284.22;5110611;28;20330;-70
2022/05/17 00:38:58;;;;;;;7.95;5.30;;;;;;;21.53;53.39;100280.00;5110496;28;20456;-69
2022/05/17 00:41:23;;;;;;;9.35;5.13;;;;;;;21.48;53.43;100278.94;5110669;28;20055;-69
2022/05/17 00:46:46;;;;;;;9.68;5.80;;;;;;;21.48;53.57;100276.22;5110813;28;20030;-70
2022/05/17 00:49:18;;;;;;;8.13;5.50;;;;;;;21.49;53.62;100272.44;5110397;28;20482;-70
2022/05/17 00:51:44;;;;;;;6.35;5.55;;;;;;;21.46;53.52;100270.97;5110313;28;20083;-70
2022/05/17 00:54:16;;;;;;;10.40;5.55;;;;;;;21.33;53.83;100259.16;5110273;28;20028;-70
2022/05/17 00:57:01;;;;;;;12.65;6.13;;;;;;;21.41;53.84;100276.19;5091667;28;20035;-65
2022/05/17 00:59:27;;;;;;;11.77;5.97;;;;;;;21.38;53.94;100270.31;5110188;28;20027;-65
2022/05/17 01:01:53;;;;;;;8.60;6.00;;;;;;;21.31;53.95;100264.00;5091543;28;20403;-64
2022/05/17 01:04:22;;;;;;;12.68;6.28;;;;;;;21.33;54.08;100267.34;5110047;28;20035;-65
2022/05/17 01:06:55;;;;;;;8.10;6.00;;;;;;;21.28;54.09;100267.13;5109810;28;20471;-65
2022/05/17 01:09:22;;;;;;;13.05;6.50;;;;;;;21.29;54.26;100269.66;5109820;28;20385;-65
2022/05/17 01:11:48;;;;;;;11.85;6.60;;;;;;;21.26;54.37;100274.66;5109646;28;20471;-65
2022/05/17 01:16:58;;;;;;;12.05;6.53;;;;;;;21.21;54.13;100266.25;5110127;28;20429;-65
2022/05/17 01:19:24;;;;;;;13.30;6.38;;;;;;;21.20;54.24;100268.16;5109922;28;20416;-65
2022/05/17 01:21:49;;;;;;;6.20;5.53;;;;;;;21.07;54.13;100245.44;5091023;28;20118;-65
2022/05/17 01:24:15;;;;;;;6.60;5.70;;;;;;;21.15;54.39;100256.19;5109301;28;20127;-65
2022/05/17 01:26:43;;;;;;;10.30;6.32;;;;;;;21.13;54.48;100259.09;5109286;28;20030;-65
2022/05/17 01:29:11;;;;;;;12.63;5.72;;;;;;;21.14;54.29;100263.50;5109342;28;20026;-65
2022/05/17 01:31:38;;;;;;;10.48;5.70;;;;;;;21.12;54.27;100265.59;5109223;28;20035;-64
2022/05/17 01:34:11;;;;;;;11.05;6.10;;;;;;;21.09;54.48;100259.72;5105522;27;20817;-65
2022/05/17 01:36:39;;;;;;;12.20;6.70;;;;;;;21.08;54.39;100266.19;5107965;28;20070;-65
2022/05/17 01:39:05;;;;;;;13.48;6.45;;;;;;;21.07;54.46;100261.78;5108320;28;20072;-65
2022/05/17 01:41:31;;;;;;;13.30;6.43;;;;;;;21.04;54.55;100263.06;5087280;28;20028;-65
2022/05/17 01:43:57;;;;;;;8.60;5.40;;;;;;;21.02;54.79;100256.13;5108085;28;20035;-65
2022/05/17 01:46:22;;;;;;;12.10;6.07;;;;;;;21.00;55.08;100255.47;5107584;28;20027;-65
2022/05/17 01:48:48;;;;;;;16.25;7.03;;;;;;;20.90;55.42;100242.19;5107816;28;20116;-65
2022/05/17 01:51:14;;;;;;;14.20;6.80;;;;;;;20.93;55.64;100252.66;5107600;28;20062;-65
2022/05/17 01:53:39;;;;;;;10.60;5.90;;;;;;;20.89;56.07;100253.31;5107771;28;20039;-65
2022/05/17 01:56:07;;;;;;;12.20;6.38;;;;;;;20.86;56.25;100246.34;5107405;28;20024;-65
2022/05/17 01:58:33;;;;;;;10.30;6.50;;;;;;;20.77;56.79;100238.56;5107108;28;20040;-65
2022/05/17 02:01:00;;;;;;;11.25;6.25;;;;;;;20.77;57.22;100247.59;5107095;28;20035;-65
2022/05/17 02:03:25;;;;;;;10.23;6.10;;;;;;;20.73;57.81;100231.84;5106664;28;20150;-65
2022/05/17 02:05:51;;;;;;;14.98;7.20;;;;;;;20.67;57.80;100230.72;5107944;28;20114;-65
2022/05/17 02:08:17;;;;;;;12.57;7.63;;;;;;;20.62;58.27;100218.75;5088646;28;20691;-65
2022/05/17 02:10:43;;;;;;;13.18;6.82;;;;;;;20.57;58.33;100221.25;5107655;28;20020;-65
2022/05/17 02:13:08;;;;;;;13.82;6.82;;;;;;;20.56;58.88;100230.44;5106322;28;20035;-65
2022/05/17 02:15:34;;;;;;;13.95;6.97;;;;;;;20.51;59.91;100232.94;5107208;28;20030;-69
2022/05/17 02:17:59;;;;;;;17.92;6.88;;;;;;;20.44;60.46;100227.44;5107487;28;20080;-69
2022/05/17 02:20:25;;;;;;;12.95;7.30;;;;;;;20.38;61.73;100219.25;5106696;28;20032;-69
2022/05/17 02:22:50;;;;;;;10.38;6.88;;;;;;;20.26;62.00;100216.25;5107102;28;20027;-69
2022/05/17 02:25:16;;;;;;;13.15;7.13;;;;;;;20.18;62.26;100209.06;5087811;28;20047;-69
2022/05/17 02:27:41;;;;;;;10.80;7.53;;;;;;;20.15;62.52;100211.31;5106556;28;20391;-69
2022/05/17 02:30:10;;;;;;;10.95;7.38;;;;;;;20.11;62.51;100223.63;5105035;28;20047;-65
2022/05/17 02:32:36;;;;;;;15.73;7.90;;;;;;;19.98;63.07;100218.94;5087832;28;20051;-64
2022/05/17 02:35:02;;;;;;;15.38;7.40;;;;;;;19.90;63.66;100210.06;5088222;28;20073;-65
2022/05/17 02:37:28;;;;;;;13.23;7.18;;;;;;;19.89;63.60;100230.16;5105083;28;20046;-64
2022/05/17 02:39:53;;;;;;;15.13;7.22;;;;;;;19.82;64.36;100227.38;5105858;28;20507;-65
2022/05/17 02:42:18;;;;;;;11.13;8.10;;;;;;;19.81;64.57;100235.75;5102940;28;20108;-65
2022/05/17 02:44:44;;;;;;;15.32;7.95;;;;;;;19.72;65.30;100236.91;5106196;28;20084;-65
2022/05/17 02:47:10;;;;;;;11.60;7.80;;;;;;;19.72;65.51;100243.22;5087299;28;20111;-65
2022/05/17 02:49:38;;;;;;;13.90;8.10;;;;;;;19.69;65.67;100242.75;5106140;28;20031;-65
2022/05/17 02:52:04;;;;;;;17.92;8.35;;;;;;;19.66;65.70;100251.28;5106605;28;20051;-65
2022/05/17 02:54:29;;;;;;;13.80;8.13;;;;;;;19.64;66.00;100256.09;5088597;28;20455;-65
2022/05/17 02:56:55;;;;;;;11.93;7.55;;;;;;;19.61;66.07;100260.03;5088663;28;20099;-65
2022/05/17 02:59:22;;;;;;;14.27;8.02;;;;;;;19.52;66.37;100258.50;5106333;28;20103;-65
2022/05/17 03:01:47;;;;;;;14.32;7.78;;;;;;;19.46;66.29;100256.53;5088078;28;20043;-65
2022/05/17 03:04:14;;;;;;;13.98;8.20;;;;;;;19.50;66.92;100266.00;5106811;28;20383;-65
2022/05/17 03:06:44;;;;;;;14.57;8.48;;;;;;;19.48;67.54;100264.50;5104325;28;20103;-65
2022/05/17 03:09:10;;;;;;;10.38;7.72;;;;;;;19.46;67.00;100272.88;5106921;28;20027;-64
2022/05/17 03:11:37;;;;;;;14.02;8.52;;;;;;;19.43;66.93;100284.13;5106808;28;20062;-65
2022/05/17 03:14:03;;;;;;;10.95;8.60;;;;;;;19.33;67.70;100278.16;5106180;28;20462;-65
2022/05/17 03:16:30;;;;;;;12.82;9.48;;;;;;;19.37;67.84;100286.75;5107322;28;20119;-64
2022/05/17 03:18:57;;;;;;;16.10;9.70;;;;;;;19.34;67.90;100282.56;5088927;28;20046;-65
2022/05/17 03:21:23;;;;;;;14.43;10.55;;;;;;;19.29;67.92;100289.63;5087905;28;20024;-65
2022/05/17 03:23:48;;;;;;;15.88;9.93;;;;;;;19.29;68.08;100279.59;5106833;28;20047;-64
2022/05/17 03:26:14;;;;;;;12.77;10.63;;;;;;;19.30;67.77;100291.28;5106597;28;20035;-65
2022/05/17 03:28:39;;;;;;;17.33;10.15;;;;;;;19.32;67.30;100303.66;5106419;28;20027;-65
2022/05/17 03:31:09;;;;;;;19.27;9.98;;;;;;;19.34;66.48;100300.75;5106167;28;20031;-64
2022/05/17 03:33:35;;;;;;;12.63;8.20;;;;;;;19.39;65.40;100291.00;5108643;28;20043;-65
2022/05/17 03:36:01;;;;;;;14.88;10.35;;;;;;;19.41;65.41;100293.53;5110230;28;20100;-65
2022/05/17 03:38:26;;;;;;;17.10;10.95;;;;;;;19.39;65.40;100292.88;5110390;28;20036;-65
2022/05/17 03:40:54;;;;;;;15.43;11.15;;;;;;;19.35;65.99;100303.28;5109494;28;20028;-65
2022/05/17 03:43:20;;;;;;;17.63;10.85;;;;;;;19.35;66.54;100303.28;5091432;28;20055;-65
2022/05/17 03:45:45;;;;;;;16.67;11.27;;;;;;;19.35;66.41;100289.66;5110415;28;20085;-65
2022/05/17 03:48:11;;;;;;;14.55;9.73;;;;;;;19.39;66.27;100304.59;5110174;28;20035;-65
2022/05/17 03:50:37;;;;;;;15.65;11.48;;;;;;;19.40;66.94;100298.13;5110533;28;20148;-65
2022/05/17 03:53:03;;;;;;;23.35;14.45;;;;;;;19.41;67.79;100302.50;5109533;28;20042;-64
2022/05/17 03:55:29;;;;;;;20.42;12.95;;;;;;;19.50;67.51;100305.97;5092045;28;20475;-64
2022/05/17 03:57:54;;;;;;;19.05;12.13;;;;;;;19.57;67.44;100307.72;5110051;28;20042;-65
2022/05/17 04:00:20;;;;;;;17.52;12.32;;;;;;;19.52;67.80;100296.59;5091272;28;20550;-65
2022/05/17 04:02:46;;;;;;;18.08;11.13;;;;;;;19.63;67.91;100311.53;5092072;28;20459;-65
2022/05/17 04:05:12;;;;;;;23.05;12.57;;;;;;;19.66;68.75;100301.13;5109623;28;20104;-65
2022/05/17 04:07:38;;;;;;;16.45;11.50;;;;;;;19.71;68.93;100308.72;5110275;28;20048;-64
2022/05/17 04:10:06;;;;;;;14.75;10.70;;;;;;;19.72;69.15;100292.19;5091532;28;20044;-65
2022/05/17 04:12:31;;;;;;;14.90;10.90;;;;;;;19.87;69.22;100298.41;5110172;28;20400;-65
2022/05/17 04:14:56;;;;;;;13.75;9.60;;;;;;;20.00;69.44;100295.78;5109656;28;20046;-65
2022/05/17 04:17:22;;;;;;;13.75;10.27;;;;;;;19.99;69.87;100274.22;5109847;28;20550;-65
2022/05/17 04:19:47;;;;;;;10.23;8.77;;;;;;;20.12;69.71;100282.56;5109657;28;20051;-65
2022/05/17 04:22:13;;;;;;;14.95;10.27;;;;;;;20.15;69.84;100272.09;5109639;28;20520;-64
2022/05/17 04:24:41;;;;;;;11.50;8.27;;;;;;;20.28;69.54;100279.50;5108561;28;20412;-64
2022/05/17 04:27:07;;;;;;;14.90;8.57;;;;;;;20.25;70.00;100268.19;5090918;28;20030;-65
2022/05/17 04:29:32;;;;;;;14.65;10.45;;;;;;;20.28;70.32;100274.06;5108958;28;20490;-65
2022/05/17 04:31:58;;;;;;;13.00;10.10;;;;;;;20.36;70.10;100278.53;5109941;28;20027;-65
2022/05/17 04:34:23;;;;;;;18.88;9.63;;;;;;;20.32;70.30;100261.75;5108807;28;20070;-64
2022/05/17 04:36:49;;;;;;;14.73;9.35;;;;;;;20.35;70.06;100266.81;5109861;28;20030;-65
2022/05/17 04:39:14;;;;;;;11.52;9.13;;;;;;;20.37;70.16;100275.63;5109620;28;20031;-64
2022/05/17 04:41:40;;;;;;;13.18;8.85;;;;;;;20.42;70.36;100264.13;5108045;28;20032;-65
2022/05/17 04:44:05;;;;;;;13.57;9.30;;;;;;;20.43;70.44;100253.03;5109237;28;20024;-65
2022/05/17 04:46:31;;;;;;;10.23;9.23;;;;;;;20.46;70.55;100241.72;5109037;28;20031;-65
2022/05/17 04:48:56;;;;;;;12.60;8.88;;;;;;;20.48;70.62;100234.19;5106221;28;20031;-65
2022/05/17 04:51:22;;;;;;;12.80;9.43;;;;;;;20.42;70.28;100220.53;5108744;28;20031;-65
2022/05/17 04:53:47;;;;;;;12.75;9.65;;;;;;;20.42;69.56;100224.09;5109518;28;20024;-65
2022/05/17 04:56:12;;;;;;;18.98;10.98;;;;;;;20.42;69.68;100229.56;5110416;28;20034;-65
2022/05/17 04:58:38;;;;;;;14.73;11.02;;;;;;;20.36;69.67;100214.00;5110444;28;20034;-64
2022/05/17 05:01:04;;;;;;;14.63;11.35;;;;;;;20.37;69.69;100220.31;5110436;28;20088;-69
2022/05/17 05:03:30;;;;;;;13.30;11.00;;;;;;;20.40;69.78;100228.03;5091866;28;20040;-70
2022/05/17 05:05:55;;;;;;;17.83;10.18;;;;;;;20.34;70.33;100207.06;5091562;28;20095;-70
2022/05/17 05:08:22;;;;;;;13.52;10.15;;;;;;;20.35;69.89;100201.44;5110316;28;20023;-70
2022/05/17 05:10:47;;;;;;;18.92;11.10;;;;;;;20.45;70.12;100220.13;5109726;28;20034;-70
2022/05/17 05:13:21;;;;;;;15.43;10.27;;;;;;;20.49;69.92;100210.50;5110085;28;20019;-70
2022/05/17 05:15:47;;;;;;;22.05;11.43;;;;;;;20.46;69.93;100200.00;5091322;28;20030;-70
2022/05/17 05:18:14;;;;;;;21.42;10.50;;;;;;;20.51;69.66;100190.22;5109865;28;20031;-70
2022/05/17 05:20:40;;;;;;;14.80;10.50;;;;;;;20.58;69.84;100198.41;5091265;28;20542;-70
2022/05/17 05:23:07;;;;;;;17.45;11.52;;;;;;;20.56;70.33;100193.16;5109723;28;20035;-70
2022/05/17 05:25:33;;;;;;;18.10;10.98;;;;;;;20.57;71.23;100188.56;5109572;28;20082;-70
2022/05/17 05:27:58;;;;;;;23.98;11.13;;;;;;;20.57;70.56;100200.28;5109764;28;20440;-71
2022/05/17 05:30:24;;;;;;;17.80;11.05;;;;;;;20.68;69.80;100231.56;5109626;28;20066;-70
2022/05/17 05:32:50;;;;;;;16.25;10.52;;;;;;;20.71;69.30;100244.81;5090929;28;20144;-70
2022/05/17 05:35:20;;;;;;;13.68;9.68;;;;;;;20.73;68.87;100240.81;5109452;28;20028;-70
2022/05/17 05:37:46;;;;;;;16.15;10.50;;;;;;;20.80;68.95;100249.88;5109508;28;20511;-70
2022/05/17 05:40:12;;;;;;;25.27;11.07;;;;;;;20.76;69.20;100239.59;5109364;28;20035;-70
2022/05/17 05:42:39;;;;;;;22.10;11.07;;;;;;;20.89;68.67;100254.13;5108841;28;20107;-69
2022/05/17 05:45:06;;;;;;;21.63;10.52;;;;;;;20.93;68.34;100252.66;5109647;28;20028;-70
2022/05/17 05:47:32;;;;;;;24.25;12.27;;;;;;;21.02;68.25;100245.22;5091089;28;20020;-70
2022/05/17 05:49:57;;;;;;;27.00;11.30;;;;;;;21.16;67.41;100260.56;5108977;28;20038;-70
2022/05/17 05:52:23;;;;;;;21.92;12.95;;;;;;;21.18;66.40;100255.78;5109303;28;20036;-70
2022/05/17 05:54:48;;;;;;;14.52;11.45;;;;;;;21.25;65.67;100267.53;5109061;28;20031;-70
2022/05/17 05:57:14;;;;;;;18.45;11.35;;;;;;;21.31;65.04;100266.72;5109126;28;20166;-71
2022/05/17 05:59:39;;;;;;;22.13;11.73;;;;;;;21.40;64.84;100257.28;5108736;28;20059;-70
2022/05/17 06:02:06;;;;;;;17.35;10.68;;;;;;;21.43;64.35;100252.28;5109157;28;20024;-70
2022/05/17 06:04:31;;;;;;;18.23;12.48;;;;;;;21.60;64.08;100263.66;5108744;28;20039;-70
2022/05/17 06:06:57;;;;;;;18.20;10.27;;;;;;;21.70;63.78;100258.63;5108695;28;20398;-70
2022/05/17 06:09:27;;;;;;;16.00;10.73;;;;;;;21.77;63.18;100252.16;5090432;28;20685;-70
2022/05/17 06:11:52;;;;;;;18.08;11.75;;;;;;;21.89;63.10;100252.38;5108733;28;20364;-71
2022/05/17 06:14:20;;;;;;;16.40;11.27;;;;;;;21.97;63.10;100249.44;5090012;28;20077;-70
2022/05/17 06:16:47;;;;;;;17.30;11.63;;;;;;;22.06;62.90;100259.94;5108487;28;20455;-70
2022/05/17 06:19:12;;;;;;;15.65;11.77;;;;;;;22.12;62.81;100263.75;5108657;28;20072;-70
2022/05/17 06:21:38;;;;;;;19.48;12.55;;;;;;;22.20;62.30;100269.84;5108719;28;20023;-70
2022/05/17 06:24:04;;;;;;;16.92;12.80;;;;;;;22.25;62.25;100270.03;5090193;28;20050;-70
2022/05/17 06:26:30;;;;;;;18.77;13.63;;;;;;;22.27;61.46;100265.22;5090123;28;20118;-70
2022/05/17 06:28:56;;;;;;;25.90;14.30;;;;;;;22.36;60.93;100271.28;5108501;28;20799;-69
2022/05/17 06:31:21;;;;;;;17.40;12.45;;;;;;;22.42;60.50;100271.28;5108552;28;20023;-71
2022/05/17 06:33:47;;;;;;;23.17;14.85;;;;;;;22.53;60.10;100275.28;5108366;28;20034;-69
2022/05/17 06:36:12;;;;;;;19.33;14.50;;;;;;;22.52;59.86;100273.63;5108369;28;20024;-69
2022/05/17 06:38:37;;;;;;;19.60;12.30;;;;;;;22.56;59.38;100271.28;5108567;28;20437;-69
2022/05/17 06:41:04;;;;;;;18.25;11.18;;;;;;;22.64;59.10;100271.94;5090167;28;20081;-70
2022/05/17 06:43:30;;;;;;;13.93;11.50;;;;;;;22.75;58.67;100273.16;5108236;28;20084;-69
2022/05/17 06:45:56;;;;;;;15.82;12.48;;;;;;;22.71;58.64;100277.38;5108458;28;20324;-69
2022/05/17 06:48:21;;;;;;;19.33;12.15;;;;;;;22.72;58.62;100271.69;5108372;28;20095;-70
2022/05/17 06:50:47;;;;;;;24.35;12.85;;;;;;;22.75;58.27;100274.00;5108010;28;20032;-71
2022/05/17 06:53:13;;;;;;;23.30;13.98;;;;;;;22.77;58.27;100280.09;5108407;28;20057;-70
2022/05/17 06:55:39;;;;;;;19.33;12.40;;;;;;;22.77;58.23;100274.63;5108200;28;20019;-69
2022/05/17 06:58:05;;;;;;;18.63;12.27;;;;;;;22.85;58.17;100281.75;5108197;28;20046;-69
2022/05/17 07:00:34;;;;;;;17.45;11.38;;;;;;;22.79;57.73;100267.03;5108224;28;20391;-69
2022/05/17 07:03:00;;;;;;;15.07;11.25;;;;;;;22.89;57.65;100272.91;5107822;28;20085;-69
2022/05/17 07:05:27;;;;;;;17.15;10.48;;;;;;;23.01;57.76;100284.84;5107891;28;20409;-69
2022/05/17 07:07:53;;;;;;;18.63;12.38;;;;;;;22.95;57.73;100263.84;5088858;28;20065;-69
2022/05/17 07:13:08;;;;;;;15.80;10.88;;;;;;;23.23;57.44;100282.69;5107942;28;20041;-69
2022/05/17 07:15:40;;;;;;;15.82;11.68;;;;;;;23.34;56.88;100282.84;5089696;28;20042;-69
2022/05/17 07:18:06;;;;;;;15.02;11.63;;;;;;;23.44;56.88;100283.22;5107914;28;20024;-69
2022/05/17 07:20:32;;;;;;;17.85;11.50;;;;;;;23.57;56.55;100285.88;5107964;28;20032;-70
2022/05/17 07:22:57;;;;;;;15.57;10.90;;;;;;;23.70;56.24;100276.78;5107669;28;20032;-70
2022/05/17 07:25:23;;;;;;;19.95;12.27;;;;;;;23.82;55.80;100281.31;5089284;28;20133;-70
2022/05/17 07:27:49;;;;;;;16.05;10.98;;;;;;;23.97;55.27;100278.31;5107624;28;20066;-69
2022/05/17 07:30:14;;;;;;;15.48;11.25;;;;;;;24.09;54.36;100282.84;5107831;28;20050;-70
2022/05/17 07:32:40;;;;;;;14.13;10.32;;;;;;;24.17;53.76;100276.25;5107711;28;20569;-70
2022/05/17 07:35:09;;;;;;;15.63;11.13;;;;;;;24.29;53.55;100278.06;5107605;28;20054;-70
2022/05/17 07:37:35;;;;;;;18.92;10.77;;;;;;;24.38;53.43;100282.16;5107718;28;20459;-70
2022/05/17 07:40:00;;;;;;;21.45;10.95;;;;;;;24.45;53.08;100273.91;5107509;28;20766;-70
2022/05/17 07:42:26;;;;;;;22.00;10.98;;;;;;;24.59;53.15;100278.19;5089372;28;20024;-70
2022/05/17 07:44:51;;;;;;;28.98;11.82;;;;;;;24.68;52.46;100268.63;5107593;28;20409;-70
2022/05/17 07:47:17;;;;;;;21.17;10.57;;;;;;;24.86;51.98;100278.78;5107460;28;20024;-69
2022/05/17 07:49:43;;;;;;;17.45;10.05;;;;;;;24.91;51.07;100257.81;5107512;28;20088;-70
2022/05/17 07:52:10;;;;;;;14.57;9.20;;;;;;;25.11;50.69;100272.13;5089508;28;20066;-69
2022/05/17 07:54:37;;;;;;;15.50;10.23;;;;;;;25.24;49.89;100280.22;5107609;28;20375;-69
2022/05/17 07:57:04;;;;;;;15.88;9.20;;;;;;;25.32;49.19;100276.34;5107557;28;20024;-70
2022/05/17 07:59:30;;;;;;;10.70;8.07;;;;;;;25.43;48.89;100292.88;5107702;28;20032;-70
2022/05/17 08:01:55;;;;;;;13.27;8.88;;;;;;;25.50;49.22;100285.38;5107212;28;20076;-70
2022/05/17 08:04:23;;;;;;;12.25;8.93;;;;;;;25.63;48.37;100287.97;5107477;28;20080;-70
2022/05/17 08:06:49;;;;;;;15.77;9.40;;;;;;;25.68;48.09;100285.38;5107199;28;20759;-70
2022/05/17 08:09:14;;;;;;;15.02;9.63;;;;;;;25.76;48.19;100295.19;5107473;28;20034;-70
2022/05/17 08:11:40;;;;;;;17.42;10.57;;;;;;;25.74;48.13;100286.34;5107506;28;20069;-70
2022/05/17 08:14:05;;;;;;;18.63;9.73;;;;;;;25.82;48.15;100289.59;5107323;28;20016;-70
2022/05/17 08:16:31;;;;;;;22.60;9.95;;;;;;;25.84;48.07;100295.69;5107400;28;20400;-70
2022/05/17 08:18:56;;;;;;;10.35;8.25;;;;;;;25.90;47.36;100288.41;5107963;28;20051;-70
2022/05/17 08:21:22;;;;;;;11.80;8.80;;;;;;;25.89;47.16;100298.56;5110963;28;20024;-70
2022/05/17 08:23:47;;;;;;;11.60;8.32;;;;;;;25.96;47.23;100302.03;5110679;28;20260;-71
2022/05/17 08:28:57;;;;;;;13.85;8.02;;;;;;;26.11;47.75;100296.16;5110834;28;20050;-71
2022/05/17 08:31:23;;;;;;;9.63;8.18;;;;;;;26.26;47.25;100289.13;5110961;28;20032;-70
2022/05/17 08:33:49;;;;;;;14.13;8.73;;;;;;;26.46;46.61;100306.13;5092307;28;20036;-70
2022/05/17 08:36:15;;;;;;;13.70;8.35;;;;;;;26.56;45.99;100305.53;5110652;28;20031;-70
2022/05/17 08:38:43;;;;;;;13.70;7.50;;;;;;;26.64;45.17;100296.13;5110830;28;20030;-71
2022/05/17 08:41:38;;;;;;;7.70;6.80;;;;;;;26.72;44.81;100299.34;5092357;28;20026;-70
2022/05/17 08:44:13;;;;;;;12.57;8.05;;;;;;;26.80;44.60;100295.41;5110725;28;20083;-70
2022/05/17 08:46:56;;;;;;;9.45;6.80;;;;;;;26.89;45.07;100299.47;5110285;28;20038;-70
2022/05/17 08:49:31;;;;;;;9.27;6.87;;;;;;;26.97;44.69;100302.69;5092415;28;20036;-70
2022/05/17 08:52:02;;;;;;;12.77;6.45;;;;;;;27.02;44.40;100300.03;5110566;28;20483;-71
2022/05/17 08:55:10;;;;;;;10.75;6.30;;;;;;;27.18;44.38;100304.81;5110985;28;20031;-70
2022/05/17 08:57:53;;;;;;;9.00;6.10;;;;;;;27.33;43.36;100318.09;5065751;28;20058;-70
2022/05/17 09:00:31;;;;;;;10.57;6.00;;;;;;;27.42;43.07;100300.97;5110636;28;20042;-70
2022/05/17 09:03:02;;;;;;;7.85;5.10;;;;;;;27.51;42.38;100305.00;5110029;28;20030;-70
2022/05/17 09:05:33;;;;;;;7.45;5.43;;;;;;;27.65;42.06;100306.38;5091834;28;20569;-70
2022/05/17 09:08:13;;;;;;;13.55;6.07;;;;;;;27.71;41.71;100301.81;5109830;28;20027;-70
2022/05/17 09:10:44;;;;;;;8.50;5.38;;;;;;;27.77;41.36;100309.94;5091498;28;20044;-70
2022/05/17 09:13:24;;;;;;;9.68;5.53;;;;;;;27.79;41.38;100299.47;5091937;28;20031;-70
2022/05/17 09:15:52;;;;;;;7.90;4.95;;;;;;;27.88;41.17;100297.19;5091442;28;20063;-70
2022/05/17 09:18:19;;;;;;;7.38;5.55;;;;;;;27.89;41.50;100287.84;5109902;28;20544;-70
2022/05/17 09:20:45;;;;;;;11.85;6.10;;;;;;;27.90;41.21;100281.25;5109763;28;20041;-71
2022/05/17 09:23:11;;;;;;;12.40;6.50;;;;;;;27.91;41.55;100294.78;5091496;28;20028;-72
2022/05/17 09:25:58;;;;;;;9.38;5.88;;;;;;;27.94;40.93;100301.72;5091216;28;20038;-71
2022/05/17 09:28:27;;;;;;;7.90;5.47;;;;;;;27.95;40.88;100295.16;5109869;28;20032;-70
2022/05/17 09:31:17;;;;;;;8.35;5.63;;;;;;;28.00;40.68;100296.06;5109001;28;20032;-71
2022/05/17 09:33:43;;;;;;;10.65;5.55;;;;;;;27.94;40.65;100285.19;5109696;28;20019;-70
2022/05/17 09:36:21;;;;;;;11.60;5.35;;;;;;;28.02;40.29;100296.63;5107521;28;20035;-71
2022/05/17 09:38:49;;;;;;;10.35;5.05;;;;;;;28.04;40.06;100300.00;5091092;28;20020;-71
2022/05/17 09:41:19;;;;;;;7.18;5.25;;;;;;;28.01;40.07;100297.72;5109822;28;20042;-72
2022/05/17 09:43:55;;;;;;;10.40;5.07;;;;;;;27.95;39.37;100282.16;5109300;28;20027;-71
2022/05/17 09:46:50;;;;;;;9.48;5.53;;;;;;;27.89;39.49;100291.44;5091067;28;20036;-71
2022/05/17 09:55:12;;;;;;;11.88;5.70;;;;;;;27.77;40.69;100293.41;5109449;28;20398;-73
2022/05/17 09:57:52;;;;;;;10.70;5.10;;;;;;;27.80;40.26;100287.41;5108984;28;20047;-69
2022/05/17 10:00:28;;;;;;;11.10;5.82;;;;;;;27.81;40.66;100289.06;5109170;28;20029;-69
2022/05/17 10:03:00;;;;;;;8.77;4.90;;;;;;;27.80;40.36;100275.53;5108880;28;20132;-69
2022/05/17 10:05:30;;;;;;;10.35;4.78;;;;;;;27.86;39.92;100274.56;5108913;28;20027;-70
2022/05/17 10:07:59;;;;;;;10.23;5.05;;;;;;;27.95;39.44;100279.41;5108938;28;20027;-64
2022/05/17 10:10:31;;;;;;;10.90;5.50;;;;;;;27.87;39.65;100257.78;5108958;28;20088;-64
2022/05/17 10:13:07;;;;;;;13.95;5.75;;;;;;;28.00;40.55;100262.13;5108662;28;20040;-64
2022/05/17 10:15:37;;;;;;;23.75;7.10;;;;;;;28.07;40.50;100274.69;5108748;28;20407;-64
2022/05/17 10:18:32;;;;;;;12.68;7.00;;;;;;;28.07;40.38;100266.41;5108585;28;20031;-65
2022/05/17 10:21:20;;;;;;;13.10;6.20;;;;;;;28.09;40.10;100264.22;5076397;28;20043;-65
2022/05/17 10:23:57;;;;;;;15.10;6.18;;;;;;;28.11;40.18;100253.78;5108210;28;20102;-65
2022/05/17 10:26:33;;;;;;;9.05;5.13;;;;;;;28.15;40.43;100257.69;5108406;28;20048;-65
2022/05/17 10:29:09;;;;;;;8.70;6.22;;;;;;;28.23;40.46;100264.72;5108388;28;20020;-65
2022/05/17 10:31:53;;;;;;;9.35;5.97;;;;;;;28.21;40.40;100264.16;5108583;28;20020;-65
2022/05/17 10:34:35;;;;;;;11.27;6.15;;;;;;;28.15;40.11;100254.13;5108371;28;20072;-66
2022/05/17 10:37:19;;;;;;;11.10;5.80;;;;;;;28.10;39.93;100252.13;5108062;28;20023;-65
2022/05/17 10:40:09;;;;;;;11.25;5.50;;;;;;;28.09;40.26;100266.16;5108258;28;20019;-65
2022/05/17 10:42:37;;;;;;;9.60;6.15;;;;;;;28.00;40.72;100262.13;5107377;28;20083;-65
2022/05/17 10:45:05;;;;;;;12.02;6.50;;;;;;;27.91;41.32;100260.84;5108160;28;20035;-65
2022/05/17 10:48:12;;;;;;;12.85;6.65;;;;;;;27.87;41.86;100255.03;5108182;28;20043;-65
2022/05/17 10:50:51;;;;;;;9.82;5.53;;;;;;;27.86;42.51;100258.03;5108062;28;20031;-66
2022/05/17 10:53:34;;;;;;;13.48;6.25;;;;;;;27.84;43.11;100255.47;5108185;28;20054;-65
2022/05/17 10:56:16;;;;;;;14.68;7.05;;;;;;;27.85;43.21;100259.09;5107289;28;20054;-66
2022/05/17 10:58:59;;;;;;;11.02;5.95;;;;;;;27.80;43.13;100262.59;5107847;28;20019;-66
2022/05/17 11:01:52;;;;;;;14.00;6.85;;;;;;;27.70;43.27;100264.31;5107518;28;20281;-66
2022/05/17 11:04:57;;;;;;;8.35;5.38;;;;;;;27.64;43.14;100268.03;5089221;28;20058;-66
2022/05/17 11:07:50;;;;;;;13.68;6.50;;;;;;;27.48;43.46;100252.28;5089212;28;20038;-65
2022/05/17 11:10:41;;;;;;;10.07;5.70;;;;;;;27.45;43.42;100256.38;5107759;28;20368;-66
2022/05/17 11:13:13;;;;;;;11.77;5.47;;;;;;;27.39;43.50;100257.34;5061857;28;20483;-65
2022/05/17 11:15:46;;;;;;;9.73;5.47;;;;;;;27.34;43.97;100253.69;5107721;28;20023;-65
2022/05/17 11:18:25;;;;;;;9.57;5.07;;;;;;;27.29;43.77;100251.66;5107512;28;20042;-71
2022/05/17 11:21:01;;;;;;;9.05;5.35;;;;;;;27.17;43.67;100250.81;5106925;28;20066;-71
2022/05/17 11:24:02;;;;;;;12.77;5.22;;;;;;;27.09;44.01;100253.97;5107181;28;20023;-71
2022/05/17 11:26:45;;;;;;;11.07;5.32;;;;;;;27.06;44.16;100261.84;5020760;28;20131;-71
2022/05/17 11:29:35;;;;;;;13.67;5.23;;;;;;;26.94;43.47;100264.63;5107390;28;20031;-71
2022/05/17 11:32:25;;;;;;;7.07;4.13;;;;;;;26.83;43.22;100264.66;5106959;28;20019;-71
2022/05/17 11:34:53;;;;;;;10.18;4.60;;;;;;;26.70;43.49;100267.66;5106976;28;20024;-71
2022/05/17 11:37:34;;;;;;;8.05;4.10;;;;;;;26.61;43.25;100269.06;5088973;28;20051;-71
2022/05/17 11:40:07;;;;;;;9.00;4.35;;;;;;;26.45;43.13;100259.59;5106877;28;20039;-71
2022/05/17 11:45:51;;;;;;;;;;;;;;;26.06;43.75;100266.59;5106429;28;20105;-72
2022/05/17 11:48:51;;;;;;;7.10;4.07;;;;;;;25.94;43.83;100262.13;5089165;28;19915;-69